sensor_id;sensor_type;location;lat;lon;timestamp;pressure;altitude;pressure_sealevel;temperature;humidity
21960;BME280;11144;43.030;25.108;2023-05-24T00:00:48;98984.59;;;13.80;100.00
21960;BME280;11144;43.030;25.108;2023-05-24T00:02:24;98980.63;;;13.71;100.00
21960;BME280;11144;43.030;25.108;2023-05-24T00:03:59;98987.28;;;13.62;100.00
21960;BME280;11144;43.030;25.108;2023-05-24T00:05:33;98980.44;;;13.58;100.00
21960;BME280;11144;43.030;25.108;2023-05-24T00:07:08;98984.81;;;13.59;100.00
21960;BME280;11144;43.030;25.108;2023-05-24T00:08:41;98979.41;;;13.61;100.00
21960;BME280;11144;43.030;25.108;2023-05-24T00:10:15;98986.38;;;13.63;100.00
21960;BME280;11144;43.030;25.108;2023-05-24T00:11:47;98974.81;;;13.64;100.00
21960;BME280;11144;43.030;25.108;2023-05-24T00:13:21;98989.56;;;13.70;100.00
21960;BME280;11144;43.030;25.108;2023-05-24T00:14:54;98981.50;;;13.72;100.00
21960;BME280;11144;43.030;25.108;2023-05-24T00:16:27;98979.59;;;13.73;100.00
21960;BME280;11144;43.030;25.108;2023-05-24T00:18:00;98977.91;;;13.73;100.00
21960;BME280;11144;43.030;25.108;2023-05-24T00:19:35;98984.91;;;13.73;100.00
21960;BME280;11144;43.030;25.108;2023-05-24T00:21:09;98978.06;;;13.69;100.00
21960;BME280;11144;43.030;25.108;2023-05-24T00:22:43;98979.78;;;13.71;100.00
21960;BME280;11144;43.030;25.108;2023-05-24T00:24:17;98979.16;;;13.65;100.00
21960;BME280;11144;43.030;25.108;2023-05-24T00:25:50;98976.66;;;13.62;100.00
21960;BME280;11144;43.030;25.108;2023-05-24T00:27:23;98975.84;;;13.62;100.00
21960;BME280;11144;43.030;25.108;2023-05-24T00:28:57;98980.59;;;13.55;100.00
21960;BME280;11144;43.030;25.108;2023-05-24T00:30:29;98974.84;;;13.47;100.00
21960;BME280;11144;43.030;25.108;2023-05-24T00:32:02;98977.84;;;13.41;100.00
21960;BME280;11144;43.030;25.108;2023-05-24T00:33:35;98977.84;;;13.41;100.00
21960;BME280;11144;43.030;25.108;2023-05-24T00:35:10;98978.66;;;13.42;100.00
21960;BME280;11144;43.030;25.108;2023-05-24T00:36:44;98972.19;;;13.47;100.00
21960;BME280;11144;43.030;25.108;2023-05-24T00:38:17;98964.19;;;13.47;100.00
21960;BME280;11144;43.030;25.108;2023-05-24T00:39:49;98966.63;;;13.52;100.00
21960;BME280;11144;43.030;25.108;2023-05-24T00:41:22;98964.75;;;13.54;100.00
21960;BME280;11144;43.030;25.108;2023-05-24T00:42:56;98961.06;;;13.56;100.00
21960;BME280;11144;43.030;25.108;2023-05-24T00:44:30;98962.88;;;13.56;100.00
21960;BME280;11144;43.030;25.108;2023-05-24T00:46:15;98962.94;;;13.54;100.00
21960;BME280;11144;43.030;25.108;2023-05-24T00:47:50;98959.44;;;13.54;100.00
21960;BME280;11144;43.030;25.108;2023-05-24T00:49:23;98967.50;;;13.52;100.00
21960;BME280;11144;43.030;25.108;2023-05-24T00:50:58;98957.78;;;13.51;100.00
21960;BME280;11144;43.030;25.108;2023-05-24T00:52:30;98957.78;;;13.51;100.00
21960;BME280;11144;43.030;25.108;2023-05-24T00:54:04;98965.75;;;13.51;100.00
21960;BME280;11144;43.030;25.108;2023-05-24T00:55:38;98959.34;;;13.55;100.00
21960;BME280;11144;43.030;25.108;2023-05-24T00:57:11;98971.69;;;13.56;100.00
21960;BME280;11144;43.030;25.108;2023-05-24T00:58:45;98965.59;;;13.54;100.00
21960;BME280;11144;43.030;25.108;2023-05-24T01:00:18;98969.03;;;13.56;100.00
21960;BME280;11144;43.030;25.108;2023-05-24T01:01:54;98974.50;;;13.53;100.00
21960;BME280;11144;43.030;25.108;2023-05-24T01:03:27;98967.66;;;13.49;100.00
21960;BME280;11144;43.030;25.108;2023-05-24T01:05:00;98970.31;;;13.49;100.00
21960;BME280;11144;43.030;25.108;2023-05-24T01:06:42;98960.16;;;13.40;100.00
21960;BME280;11144;43.030;25.108;2023-05-24T01:08:29;98970.63;;;13.43;100.00
21960;BME280;11144;43.030;25.108;2023-05-24T01:10:14;98965.47;;;13.40;100.00
21960;BME280;11144;43.030;25.108;2023-05-24T01:11:58;98975.41;;;13.37;100.00
21960;BME280;11144;43.030;25.108;2023-05-24T01:13:43;98966.72;;;13.33;100.00
21960;BME280;11144;43.030;25.108;2023-05-24T01:15:23;98977.34;;;13.33;100.00
21960;BME280;11144;43.030;25.108;2023-05-24T01:17:03;98969.56;;;13.30;100.00
21960;BME280;11144;43.030;25.108;2023-05-24T01:18:44;98972.47;;;13.26;100.00
21960;BME280;11144;43.030;25.108;2023-05-24T01:20:19;98974.72;;;13.16;100.00
21960;BME280;11144;43.030;25.108;2023-05-24T01:22:04;98976.78;;;13.11;100.00
21960;BME280;11144;43.030;25.108;2023-05-24T01:23:46;98972.22;;;13.13;100.00
21960;BME280;11144;43.030;25.108;2023-05-24T01:25:30;98979.88;;;13.02;100.00
21960;BME280;11144;43.030;25.108;2023-05-24T01:27:07;98971.72;;;12.88;100.00
21960;BME280;11144;43.030;25.108;2023-05-24T01:28:43;98981.44;;;12.89;100.00
21960;BME280;11144;43.030;25.108;2023-05-24T01:32:19;98978.59;;;12.92;100.00
21960;BME280;11144;43.030;25.108;2023-05-24T01:34:13;98976.88;;;12.91;100.00
21960;BME280;11144;43.030;25.108;2023-05-24T01:35:46;98983.91;;;12.92;100.00
21960;BME280;11144;43.030;25.108;2023-05-24T01:37:18;98978.59;;;12.92;100.00
21960;BME280;11144;43.030;25.108;2023-05-24T01:38:52;98985.94;;;12.87;100.00
21960;BME280;11144;43.030;25.108;2023-05-24T01:40:25;98977.97;;;12.87;100.00
21960;BME280;11144;43.030;25.108;2023-05-24T01:42:06;98980.63;;;12.87;100.00
21960;BME280;11144;43.030;25.108;2023-05-24T01:43:50;98987.66;;;12.88;100.00
21960;BME280;11144;43.030;25.108;2023-05-24T01:45:34;98988.59;;;12.87;100.00
21960;BME280;11144;43.030;25.108;2023-05-24T01:47:19;98985.16;;;12.85;100.00
21960;BME280;11144;43.030;25.108;2023-05-24T01:49:00;98999.22;;;12.87;100.00
21960;BME280;11144;43.030;25.108;2023-05-24T01:50:41;98988.59;;;12.87;100.00
21960;BME280;11144;43.030;25.108;2023-05-24T01:52:19;98990.38;;;12.87;100.00
21960;BME280;11144;43.030;25.108;2023-05-24T01:53:57;98985.25;;;12.84;100.00
21960;BME280;11144;43.030;25.108;2023-05-24T01:55:31;98988.97;;;12.80;100.00
21960;BME280;11144;43.030;25.108;2023-05-24T01:57:07;98988.28;;;12.76;100.00
21960;BME280;11144;43.030;25.108;2023-05-24T01:58:45;98986.41;;;12.78;100.00
21960;BME280;11144;43.030;25.108;2023-05-24T02:00:20;98989.22;;;12.75;100.00
21960;BME280;11144;43.030;25.108;2023-05-24T02:01:57;98995.44;;;12.74;100.00
21960;BME280;11144;43.030;25.108;2023-05-24T02:03:30;98991.06;;;12.73;100.00
21960;BME280;11144;43.030;25.108;2023-05-24T02:05:07;98983.91;;;12.75;100.00
21960;BME280;11144;43.030;25.108;2023-05-24T02:06:41;98987.47;;;12.74;100.00
21960;BME280;11144;43.030;25.108;2023-05-24T02:08:15;98990.94;;;12.76;100.00
21960;BME280;11144;43.030;25.108;2023-05-24T02:09:49;98984.81;;;12.74;100.00
21960;BME280;11144;43.030;25.108;2023-05-24T02:11:22;98988.28;;;12.76;100.00
21960;BME280;11144;43.030;25.108;2023-05-24T02:12:56;98983.91;;;12.75;100.00
21960;BME280;11144;43.030;25.108;2023-05-24T02:14:32;98994.53;;;12.75;100.00
21960;BME280;11144;43.030;25.108;2023-05-24T02:16:05;98986.72;;;12.72;100.00
21960;BME280;11144;43.030;25.108;2023-05-24T02:17:39;98997.31;;;12.72;100.00
21960;BME280;11144;43.030;25.108;2023-05-24T02:19:13;98986.72;;;12.72;100.00
21960;BME280;11144;43.030;25.108;2023-05-24T02:20:48;98987.00;;;12.66;100.00
21960;BME280;11144;43.030;25.108;2023-05-24T02:22:20;98982.94;;;12.59;100.00
21960;BME280;11144;43.030;25.108;2023-05-24T02:23:56;98987.34;;;12.60;100.00
21960;BME280;11144;43.030;25.108;2023-05-24T02:25:29;98993.41;;;12.62;100.00
21960;BME280;11144;43.030;25.108;2023-05-24T02:27:02;98995.22;;;12.62;100.00
21960;BME280;11144;43.030;25.108;2023-05-24T02:28:36;98989.13;;;12.60;100.00
21960;BME280;11144;43.030;25.108;2023-05-24T02:30:11;98993.72;;;12.56;100.00
21960;BME280;11144;43.030;25.108;2023-05-24T02:31:45;98992.84;;;12.56;100.00
21960;BME280;11144;43.030;25.108;2023-05-24T02:33:17;98989.34;;;12.55;100.00
21960;BME280;11144;43.030;25.108;2023-05-24T02:34:52;98987.63;;;12.54;100.00
21960;BME280;11144;43.030;25.108;2023-05-24T02:36:25;98998.38;;;12.51;100.00
21960;BME280;11144;43.030;25.108;2023-05-24T02:37:58;99001.97;;;12.50;100.00
21960;BME280;11144;43.030;25.108;2023-05-24T02:39:32;98998.38;;;12.51;100.00
21960;BME280;11144;43.030;25.108;2023-05-24T02:41:05;99003.06;;;12.46;100.00
21960;BME280;11144;43.030;25.108;2023-05-24T02:42:40;98999.91;;;12.38;100.00
21960;BME280;11144;43.030;25.108;2023-05-24T02:44:12;99008.16;;;12.32;100.00
21960;BME280;11144;43.030;25.108;2023-05-24T02:45:47;99006.59;;;12.28;100.00
21960;BME280;11144;43.030;25.108;2023-05-24T02:47:20;99008.59;;;12.23;100.00
21960;BME280;11144;43.030;25.108;2023-05-24T02:48:54;99010.31;;;12.24;100.00
21960;BME280;11144;43.030;25.108;2023-05-24T02:50:26;99016.38;;;12.26;100.00
21960;BME280;11144;43.030;25.108;2023-05-24T02:52:00;99015.34;;;12.30;100.00
21960;BME280;11144;43.030;25.108;2023-05-24T02:53:33;99017.06;;;12.31;100.00
21960;BME280;11144;43.030;25.108;2023-05-24T02:55:07;99010.81;;;12.32;100.00
21960;BME280;11144;43.030;25.108;2023-05-24T02:56:40;99013.31;;;12.35;100.00
21960;BME280;11144;43.030;25.108;2023-05-24T02:58:14;99013.19;;;12.38;100.00
21960;BME280;11144;43.030;25.108;2023-05-24T02:59:51;98993.69;;;12.39;100.00
21960;BME280;11144;43.030;25.108;2023-05-24T03:01:27;99006.94;;;12.39;100.00
21960;BME280;11144;43.030;25.108;2023-05-24T03:03:02;99006.31;;;12.34;100.00
21960;BME280;11144;43.030;25.108;2023-05-24T03:04:36;99015.16;;;12.33;100.00
21960;BME280;11144;43.030;25.108;2023-05-24T03:06:12;99010.75;;;12.34;100.00
21960;BME280;11144;43.030;25.108;2023-05-24T03:07:46;99011.75;;;12.31;100.00
21960;BME280;11144;43.030;25.108;2023-05-24T03:09:19;98988.84;;;12.30;100.00
21960;BME280;11144;43.030;25.108;2023-05-24T03:10:53;98997.28;;;12.38;100.00
21960;BME280;11144;43.030;25.108;2023-05-24T03:12:27;98995.38;;;12.40;100.00
21960;BME280;11144;43.030;25.108;2023-05-24T03:14:00;99001.56;;;12.41;100.00
21960;BME280;11144;43.030;25.108;2023-05-24T03:15:33;98995.31;;;12.42;100.00
21960;BME280;11144;43.030;25.108;2023-05-24T03:17:08;99003.19;;;12.43;100.00
21960;BME280;11144;43.030;25.108;2023-05-24T03:18:40;99004.13;;;12.42;100.00
21960;BME280;11144;43.030;25.108;2023-05-24T03:20:14;98995.25;;;12.43;100.00
21960;BME280;11144;43.030;25.108;2023-05-24T03:21:49;99000.41;;;12.46;100.00
21960;BME280;11144;43.030;25.108;2023-05-24T03:23:21;99001.25;;;12.47;100.00
21960;BME280;11144;43.030;25.108;2023-05-24T03:24:55;99004.00;;;12.45;100.00
21960;BME280;11144;43.030;25.108;2023-05-24T03:26:29;98998.84;;;12.42;100.00
21960;BME280;11144;43.030;25.108;2023-05-24T03:28:03;99007.06;;;12.36;100.00
21960;BME280;11144;43.030;25.108;2023-05-24T03:29:36;99006.31;;;12.34;100.00
21960;BME280;11144;43.030;25.108;2023-05-24T03:31:11;99006.31;;;12.34;100.00
21960;BME280;11144;43.030;25.108;2023-05-24T03:32:45;99006.94;;;12.39;100.00
21960;BME280;11144;43.030;25.108;2023-05-24T03:34:18;99012.44;;;12.35;100.00
21960;BME280;11144;43.030;25.108;2023-05-24T03:35:51;99015.50;;;12.44;100.00
21960;BME280;11144;43.030;25.108;2023-05-24T03:37:24;99009.94;;;12.50;100.00
21960;BME280;11144;43.030;25.108;2023-05-24T03:38:57;99017.41;;;12.59;100.00
21960;BME280;11144;43.030;25.108;2023-05-24T03:40:30;99010.19;;;12.63;100.00
21960;BME280;11144;43.030;25.108;2023-05-24T03:42:11;99020.25;;;12.73;100.00
21960;BME280;11144;43.030;25.108;2023-05-24T03:43:44;99020.91;;;12.78;100.00
21960;BME280;11144;43.030;25.108;2023-05-24T03:45:20;99021.53;;;12.83;100.00
21960;BME280;11144;43.030;25.108;2023-05-24T03:47:09;99016.09;;;12.86;100.00
21960;BME280;11144;43.030;25.108;2023-05-24T03:48:43;99019.34;;;12.91;100.00
21960;BME280;11144;43.030;25.108;2023-05-24T03:50:17;99023.50;;;12.97;100.00
21960;BME280;11144;43.030;25.108;2023-05-24T03:51:50;99019.63;;;13.04;100.00
21960;BME280;11144;43.030;25.108;2023-05-24T03:53:24;99018.31;;;13.12;100.00
21960;BME280;11144;43.030;25.108;2023-05-24T03:54:56;99016.59;;;13.11;100.00
21960;BME280;11144;43.030;25.108;2023-05-24T03:56:30;99012.66;;;13.18;100.00
21960;BME280;11144;43.030;25.108;2023-05-24T03:58:03;99019.38;;;13.25;100.00
21960;BME280;11144;43.030;25.108;2023-05-24T03:59:36;99018.91;;;13.34;100.00
21960;BME280;11144;43.030;25.108;2023-05-24T04:01:12;99015.84;;;13.42;100.00
21960;BME280;11144;43.030;25.108;2023-05-24T04:03:04;99015.47;;;13.49;100.00
21960;BME280;11144;43.030;25.108;2023-05-24T04:04:40;99017.97;;;13.52;100.00
21960;BME280;11144;43.030;25.108;2023-05-24T04:06:13;99012.66;;;13.52;100.00
21960;BME280;11144;43.030;25.108;2023-05-24T04:07:48;99010.59;;;13.57;100.00
21960;BME280;11144;43.030;25.108;2023-05-24T04:09:22;99015.91;;;13.57;100.00
21960;BME280;11144;43.030;25.108;2023-05-24T04:10:56;99018.72;;;13.54;100.00
21960;BME280;11144;43.030;25.108;2023-05-24T04:12:29;99017.63;;;13.58;100.00
21960;BME280;11144;43.030;25.108;2023-05-24T04:14:02;99015.25;;;13.69;100.00
21960;BME280;11144;43.030;25.108;2023-05-24T04:15:36;99015.81;;;13.76;100.00
21960;BME280;11144;43.030;25.108;2023-05-24T04:17:09;99017.00;;;13.86;100.00
21960;BME280;11144;43.030;25.108;2023-05-24T04:18:43;99013.09;;;13.93;100.00
21960;BME280;11144;43.030;25.108;2023-05-24T04:20:18;99023.91;;;14.06;100.00
21960;BME280;11144;43.030;25.108;2023-05-24T04:21:53;99022.31;;;14.19;100.00
21960;BME280;11144;43.030;25.108;2023-05-24T04:23:26;99036.84;;;14.44;100.00
21960;BME280;11144;43.030;25.108;2023-05-24T04:25:00;99039.38;;;14.77;100.00
21960;BME280;11144;43.030;25.108;2023-05-24T04:26:35;99031.75;;;15.16;100.00
21960;BME280;11144;43.030;25.108;2023-05-24T04:28:09;99044.72;;;15.51;100.00
21960;BME280;11144;43.030;25.108;2023-05-24T04:29:43;99051.34;;;15.74;100.00
21960;BME280;11144;43.030;25.108;2023-05-24T04:31:16;99039.56;;;15.92;100.00
21960;BME280;11144;43.030;25.108;2023-05-24T04:32:51;99043.53;;;16.13;100.00
21960;BME280;11144;43.030;25.108;2023-05-24T04:34:24;99049.88;;;16.52;100.00
21960;BME280;11144;43.030;25.108;2023-05-24T04:36:02;99050.53;;;16.97;100.00
21960;BME280;11144;43.030;25.108;2023-05-24T04:37:36;99046.47;;;17.30;100.00
21960;BME280;11144;43.030;25.108;2023-05-24T04:39:10;99048.47;;;17.53;100.00
21960;BME280;11144;43.030;25.108;2023-05-24T04:40:44;99042.38;;;17.76;100.00
21960;BME280;11144;43.030;25.108;2023-05-24T04:42:18;99037.59;;;18.06;100.00
21960;BME280;11144;43.030;25.108;2023-05-24T04:43:50;99034.75;;;18.33;100.00
21960;BME280;11144;43.030;25.108;2023-05-24T04:45:24;99032.16;;;18.56;100.00
21960;BME280;11144;43.030;25.108;2023-05-24T04:46:57;99036.66;;;18.79;100.00
21960;BME280;11144;43.030;25.108;2023-05-24T04:48:32;99036.41;;;18.95;100.00
21960;BME280;11144;43.030;25.108;2023-05-24T04:50:06;99027.75;;;19.15;100.00
21960;BME280;11144;43.030;25.108;2023-05-24T04:51:41;99018.94;;;19.36;100.00
21960;BME280;11144;43.030;25.108;2023-05-24T04:53:14;99023.91;;;19.64;100.00
21960;BME280;11144;43.030;25.108;2023-05-24T04:54:47;99016.59;;;19.77;100.00
21960;BME280;11144;43.030;25.108;2023-05-24T04:56:22;99016.16;;;19.94;100.00
21960;BME280;11144;43.030;25.108;2023-05-24T04:57:55;99016.44;;;20.14;100.00
21960;BME280;11144;43.030;25.108;2023-05-24T04:59:28;99028.41;;;20.21;100.00
21960;BME280;11144;43.030;25.108;2023-05-24T05:01:02;99018.22;;;20.02;100.00
21960;BME280;11144;43.030;25.108;2023-05-24T05:02:35;99016.03;;;19.85;100.00
21960;BME280;11144;43.030;25.108;2023-05-24T05:04:09;99014.94;;;19.87;100.00
21960;BME280;11144;43.030;25.108;2023-05-24T05:05:42;99021.53;;;19.94;100.00
21960;BME280;11144;43.030;25.108;2023-05-24T05:07:18;99025.47;;;20.13;100.00
21960;BME280;11144;43.030;25.108;2023-05-24T05:08:52;99023.72;;;20.45;100.00
21960;BME280;11144;43.030;25.108;2023-05-24T05:10:25;99024.44;;;20.69;100.00
21960;BME280;11144;43.030;25.108;2023-05-24T05:11:59;99013.38;;;21.05;100.00
21960;BME280;11144;43.030;25.108;2023-05-24T05:13:32;99013.22;;;21.38;100.00
21960;BME280;11144;43.030;25.108;2023-05-24T05:15:07;99014.28;;;21.67;100.00
21960;BME280;11144;43.030;25.108;2023-05-24T05:16:41;99018.91;;;21.96;100.00
21960;BME280;11144;43.030;25.108;2023-05-24T05:18:15;99013.66;;;22.25;100.00
21960;BME280;11144;43.030;25.108;2023-05-24T05:19:49;99016.22;;;22.66;100.00
21960;BME280;11144;43.030;25.108;2023-05-24T05:21:22;99018.56;;;22.89;100.00
21960;BME280;11144;43.030;25.108;2023-05-24T05:22:57;99017.47;;;23.21;100.00
21960;BME280;11144;43.030;25.108;2023-05-24T05:24:30;99013.06;;;23.48;100.00
21960;BME280;11144;43.030;25.108;2023-05-24T05:26:04;99016.06;;;23.64;100.00
21960;BME280;11144;43.030;25.108;2023-05-24T05:27:37;99014.78;;;23.68;100.00
21960;BME280;11144;43.030;25.108;2023-05-24T05:29:10;99020.88;;;23.70;100.00
21960;BME280;11144;43.030;25.108;2023-05-24T05:30:43;99024.28;;;23.72;100.00
21960;BME280;11144;43.030;25.108;2023-05-24T05:32:17;99016.91;;;23.84;100.00
21960;BME280;11144;43.030;25.108;2023-05-24T05:33:50;99020.59;;;23.92;100.00
21960;BME280;11144;43.030;25.108;2023-05-24T05:35:23;99018.81;;;24.10;100.00
21960;BME280;11144;43.030;25.108;2023-05-24T05:36:57;99027.09;;;23.99;100.00
21960;BME280;11144;43.030;25.108;2023-05-24T05:38:32;99025.34;;;24.17;100.00
21960;BME280;11144;43.030;25.108;2023-05-24T05:40:06;99021.19;;;24.23;100.00
21960;BME280;11144;43.030;25.108;2023-05-24T05:41:40;99027.28;;;24.34;100.00
21960;BME280;11144;43.030;25.108;2023-05-24T05:43:21;99027.47;;;24.23;100.00
21960;BME280;11144;43.030;25.108;2023-05-24T05:45:02;99028.53;;;23.84;100.00
21960;BME280;11144;43.030;25.108;2023-05-24T05:46:35;99020.88;;;23.61;100.00
21960;BME280;11144;43.030;25.108;2023-05-24T05:48:09;99029.44;;;23.56;100.00
21960;BME280;11144;43.030;25.108;2023-05-24T05:49:44;99038.63;;;24.01;100.00
21960;BME280;11144;43.030;25.108;2023-05-24T05:51:17;99030.75;;;24.17;100.00
21960;BME280;11144;43.030;25.108;2023-05-24T05:52:50;99028.06;;;24.63;100.00
21960;BME280;11144;43.030;25.108;2023-05-24T05:54:25;99022.47;;;24.92;100.00
21960;BME280;11144;43.030;25.108;2023-05-24T05:55:59;99014.34;;;25.09;100.00
21960;BME280;11144;43.030;25.108;2023-05-24T05:57:32;99019.34;;;25.31;100.00
21960;BME280;11144;43.030;25.108;2023-05-24T05:59:06;99023.66;;;25.24;100.00
21960;BME280;11144;43.030;25.108;2023-05-24T06:00:39;99023.66;;;25.24;100.00
21960;BME280;11144;43.030;25.108;2023-05-24T06:02:12;99015.63;;;25.32;100.00
21960;BME280;11144;43.030;25.108;2023-05-24T06:03:46;99019.53;;;25.47;100.00
21960;BME280;11144;43.030;25.108;2023-05-24T06:05:20;99023.50;;;25.08;100.00
21960;BME280;11144;43.030;25.108;2023-05-24T06:06:53;99021.81;;;25.07;100.00
21960;BME280;11144;43.030;25.108;2023-05-24T06:08:26;99026.72;;;24.94;100.00
21960;BME280;11144;43.030;25.108;2023-05-24T06:10:03;99014.63;;;24.71;100.00
21960;BME280;11144;43.030;25.108;2023-05-24T06:11:38;99020.09;;;24.52;100.00
21960;BME280;11144;43.030;25.108;2023-05-24T06:13:15;99026.66;;;24.50;100.00
21960;BME280;11144;43.030;25.108;2023-05-24T06:14:48;99024.34;;;24.64;100.00
21960;BME280;11144;43.030;25.108;2023-05-24T06:16:23;99026.13;;;24.73;100.00
21960;BME280;11144;43.030;25.108;2023-05-24T06:17:56;99029.78;;;24.82;100.00
21960;BME280;11144;43.030;25.108;2023-05-24T06:19:30;99033.44;;;24.90;100.00
21960;BME280;11144;43.030;25.108;2023-05-24T06:21:03;99025.63;;;24.87;100.00
21960;BME280;11144;43.030;25.108;2023-05-24T06:22:37;99034.78;;;25.04;100.00
21960;BME280;11144;43.030;25.108;2023-05-24T06:24:10;99029.28;;;25.40;100.00
21960;BME280;11144;43.030;25.108;2023-05-24T06:25:45;99031.41;;;25.54;100.00
21960;BME280;11144;43.030;25.108;2023-05-24T06:27:19;99029.47;;;25.64;100.00
21960;BME280;11144;43.030;25.108;2023-05-24T06:28:52;99027.75;;;25.81;100.00
21960;BME280;11144;43.030;25.108;2023-05-24T06:30:26;99028.44;;;26.01;100.00
21960;BME280;11144;43.030;25.108;2023-05-24T06:31:59;99031.69;;;25.86;100.00
21960;BME280;11144;43.030;25.108;2023-05-24T06:33:32;99034.38;;;26.04;100.00
21960;BME280;11144;43.030;25.108;2023-05-24T06:35:09;99028.84;;;26.14;100.00
21960;BME280;11144;43.030;25.108;2023-05-24T06:36:43;99022.22;;;25.90;100.00
21960;BME280;11144;43.030;25.108;2023-05-24T06:38:18;99020.41;;;25.73;100.00
21960;BME280;11144;43.030;25.108;2023-05-24T06:39:51;99016.56;;;25.58;100.00
21960;BME280;11144;43.030;25.108;2023-05-24T06:41:26;99028.31;;;25.84;100.00
21960;BME280;11144;43.030;25.108;2023-05-24T06:43:00;99028.53;;;26.17;100.00
21960;BME280;11144;43.030;25.108;2023-05-24T06:44:33;99022.25;;;26.42;100.00
21960;BME280;11144;43.030;25.108;2023-05-24T06:46:07;99030.03;;;26.37;100.00
21960;BME280;11144;43.030;25.108;2023-05-24T06:47:40;99028.75;;;25.98;100.00
21960;BME280;11144;43.030;25.108;2023-05-24T06:49:13;99020.44;;;25.38;100.00
21960;BME280;11144;43.030;25.108;2023-05-24T06:50:46;99021.59;;;25.53;100.00
21960;BME280;11144;43.030;25.108;2023-05-24T06:52:19;99019.97;;;25.86;100.00
21960;BME280;11144;43.030;25.108;2023-05-24T06:53:52;99014.63;;;26.12;100.00
21960;BME280;11144;43.030;25.108;2023-05-24T06:55:26;99024.88;;;25.82;100.00
21960;BME280;11144;43.030;25.108;2023-05-24T06:57:02;99018.75;;;26.24;100.00
21960;BME280;11144;43.030;25.108;2023-05-24T06:58:56;99018.19;;;25.94;100.00
21960;BME280;11144;43.030;25.108;2023-05-24T07:00:42;99018.13;;;25.86;100.00
21960;BME280;11144;43.030;25.108;2023-05-24T07:02:17;99009.78;;;25.80;100.00
21960;BME280;11144;43.030;25.108;2023-05-24T07:03:55;99016.97;;;26.07;100.00
21960;BME280;11144;43.030;25.108;2023-05-24T07:05:28;99022.25;;;26.42;100.00
21960;BME280;11144;43.030;25.108;2023-05-24T07:07:02;99013.50;;;26.56;100.00
21960;BME280;11144;43.030;25.108;2023-05-24T07:08:35;99014.72;;;27.03;100.00
21960;BME280;11144;43.030;25.108;2023-05-24T07:10:10;99011.25;;;27.34;100.00
21960;BME280;11144;43.030;25.108;2023-05-24T07:11:43;99016.19;;;27.47;100.00
21960;BME280;11144;43.030;25.108;2023-05-24T07:13:18;99007.53;;;27.75;100.00
21960;BME280;11144;43.030;25.108;2023-05-24T07:14:51;99013.84;;;27.84;100.00
21960;BME280;11144;43.030;25.108;2023-05-24T07:16:26;99008.88;;;28.03;100.00
21960;BME280;11144;43.030;25.108;2023-05-24T07:18:00;99012.03;;;28.31;100.00
21960;BME280;11144;43.030;25.108;2023-05-24T07:19:33;99009.97;;;28.49;100.00
21960;BME280;11144;43.030;25.108;2023-05-24T07:21:07;98997.72;;;28.53;100.00
21960;BME280;11144;43.030;25.108;2023-05-24T07:22:40;99014.56;;;28.40;100.00
21960;BME280;11144;43.030;25.108;2023-05-24T07:24:14;99016.28;;;28.49;100.00
21960;BME280;11144;43.030;25.108;2023-05-24T07:25:48;99003.13;;;28.61;100.00
21960;BME280;11144;43.030;25.108;2023-05-24T07:27:21;99012.63;;;28.73;100.00
21960;BME280;11144;43.030;25.108;2023-05-24T07:28:56;99008.91;;;28.66;100.00
21960;BME280;11144;43.030;25.108;2023-05-24T07:30:29;99011.50;;;28.59;100.00
21960;BME280;11144;43.030;25.108;2023-05-24T07:32:17;99001.88;;;28.79;100.00
21960;BME280;11144;43.030;25.108;2023-05-24T07:33:50;99011.91;;;28.79;100.00
21960;BME280;11144;43.030;25.108;2023-05-24T07:35:24;99000.00;;;28.72;100.00
21960;BME280;11144;43.030;25.108;2023-05-24T07:36:57;99012.94;;;28.78;100.00
21960;BME280;11144;43.030;25.108;2023-05-24T07:38:32;99007.09;;;28.89;100.00
21960;BME280;11144;43.030;25.108;2023-05-24T07:40:06;99014.97;;;28.84;100.00
21960;BME280;11144;43.030;25.108;2023-05-24T07:41:42;99011.41;;;28.75;100.00
21960;BME280;11144;43.030;25.108;2023-05-24T07:43:15;99014.22;;;28.90;100.00
21960;BME280;11144;43.030;25.108;2023-05-24T07:44:50;99013.06;;;28.92;100.00
21960;BME280;11144;43.030;25.108;2023-05-24T07:46:23;99011.75;;;29.11;100.00
21960;BME280;11144;43.030;25.108;2023-05-24T07:47:57;99009.66;;;29.21;100.00
21960;BME280;11144;43.030;25.108;2023-05-24T07:49:30;99006.88;;;29.29;100.00
21960;BME280;11144;43.030;25.108;2023-05-24T07:51:04;99013.97;;;29.38;100.00
21960;BME280;11144;43.030;25.108;2023-05-24T07:52:37;98998.94;;;29.42;100.00
21960;BME280;11144;43.030;25.108;2023-05-24T07:54:10;99007.66;;;29.15;100.00
21960;BME280;11144;43.030;25.108;2023-05-24T07:55:43;99004.97;;;29.07;100.00
21960;BME280;11144;43.030;25.108;2023-05-24T07:57:17;99006.09;;;28.82;100.00
21960;BME280;11144;43.030;25.108;2023-05-24T07:58:51;99002.63;;;28.96;100.00
21960;BME280;11144;43.030;25.108;2023-05-24T08:00:29;99007.06;;;29.28;100.00
21960;BME280;11144;43.030;25.108;2023-05-24T08:02:04;99004.16;;;29.29;100.00
21960;BME280;11144;43.030;25.108;2023-05-24T08:03:39;99007.50;;;29.39;100.00
21960;BME280;11144;43.030;25.108;2023-05-24T08:05:12;99008.06;;;29.57;100.00
21960;BME280;11144;43.030;25.108;2023-05-24T08:06:46;99008.03;;;29.80;100.00
21960;BME280;11144;43.030;25.108;2023-05-24T08:08:19;99012.22;;;29.90;100.00
21960;BME280;11144;43.030;25.108;2023-05-24T08:09:53;99015.03;;;30.19;100.00
21960;BME280;11144;43.030;25.108;2023-05-24T08:11:26;99014.09;;;30.41;100.00